createdAt,value
2018-12-08T00:01:36.857Z,7.70
2018-12-08T00:04:05.575Z,7.70
2018-12-08T00:06:34.053Z,7.70
2018-12-08T00:09:02.601Z,7.70
2018-12-08T00:11:31.229Z,7.70
2018-12-08T00:13:59.829Z,7.70
2018-12-08T00:16:28.380Z,7.60
2018-12-08T00:18:56.943Z,7.60
2018-12-08T00:21:25.595Z,7.60
2018-12-08T00:23:54.372Z,7.60
2018-12-08T00:26:23.071Z,7.60
2018-12-08T00:28:51.632Z,7.50
2018-12-08T00:31:31.418Z,7.50
2018-12-08T00:34:00.357Z,7.40
2018-12-08T00:36:28.931Z,7.40
2018-12-08T00:38:57.451Z,7.40
2018-12-08T00:41:26.009Z,7.30
2018-12-08T00:43:55.264Z,7.20
2018-12-08T00:46:23.847Z,7.20
2018-12-08T00:48:53.125Z,7.10
2018-12-08T00:51:21.711Z,7.10
2018-12-08T00:53:50.217Z,7.00
2018-12-08T00:56:18.763Z,7.00
2018-12-08T00:58:47.293Z,7.00
2018-12-08T01:01:15.816Z,6.90
2018-12-08T01:03:44.333Z,6.90
2018-12-08T01:06:12.877Z,6.90
2018-12-08T01:08:41.382Z,6.80
2018-12-08T01:11:09.987Z,6.80
2018-12-08T01:13:38.493Z,6.70
2018-12-08T01:16:07.047Z,6.70
2018-12-08T01:18:35.587Z,6.70
2018-12-08T01:21:04.131Z,6.70
2018-12-08T01:23:32.725Z,6.70
2018-12-08T01:26:01.355Z,6.70
2018-12-08T01:28:29.888Z,6.60
2018-12-08T01:30:58.486Z,6.60
2018-12-08T01:33:27.028Z,6.70
2018-12-08T01:35:56.122Z,6.70
2018-12-08T01:38:24.688Z,6.60
2018-12-08T01:40:53.245Z,6.60
2018-12-08T01:43:21.793Z,6.60
2018-12-08T01:45:50.366Z,6.60
2018-12-08T01:48:18.955Z,6.60
2018-12-08T01:50:47.566Z,6.50
2018-12-08T01:53:16.144Z,6.50
2018-12-08T01:55:44.743Z,6.50
2018-12-08T01:58:13.305Z,6.50
2018-12-08T02:00:41.910Z,6.50
2018-12-08T02:03:10.465Z,6.50
2018-12-08T02:05:39.136Z,6.50
2018-12-08T02:08:07.693Z,6.50
2018-12-08T02:10:36.259Z,6.40
2018-12-08T02:13:05.035Z,6.40
2018-12-08T02:15:33.677Z,6.40
2018-12-08T02:18:02.212Z,6.40
2018-12-08T02:20:30.776Z,6.40
2018-12-08T02:22:59.366Z,6.40
2018-12-08T02:25:27.858Z,6.30
2018-12-08T02:27:56.475Z,6.30
2018-12-08T02:30:24.957Z,6.30
2018-12-08T02:32:53.537Z,6.30
2018-12-08T02:35:22.131Z,6.30
2018-12-08T02:37:50.890Z,6.20
2018-12-08T02:40:19.418Z,6.20
2018-12-08T02:42:53.576Z,6.30
2018-12-08T02:45:22.173Z,6.20
2018-12-08T02:47:51.092Z,6.30
2018-12-08T02:50:20.128Z,6.30
2018-12-08T02:52:49.102Z,6.30
2018-12-08T02:55:17.855Z,6.30
2018-12-08T02:57:46.354Z,6.40
2018-12-08T03:00:17.070Z,6.50
2018-12-08T03:02:51.599Z,6.60
2018-12-08T03:05:21.066Z,6.70
2018-12-08T03:07:50.048Z,6.80
2018-12-08T03:10:18.573Z,6.80
2018-12-08T03:12:47.052Z,6.80
2018-12-08T03:15:15.966Z,6.90
2018-12-08T03:17:44.496Z,6.90
2018-12-08T03:20:13.836Z,6.90
2018-12-08T03:22:43.489Z,6.80
2018-12-08T03:25:12.394Z,6.80
2018-12-08T03:27:40.925Z,6.80
2018-12-08T03:30:09.523Z,6.80
2018-12-08T03:32:38.025Z,6.70
2018-12-08T03:35:06.522Z,6.70
2018-12-08T03:37:35.008Z,6.70
2018-12-08T03:40:03.808Z,6.60
2018-12-08T03:42:32.299Z,6.60
2018-12-08T03:45:00.748Z,6.60
2018-12-08T03:47:29.224Z,6.60
2018-12-08T03:49:57.724Z,6.50
2018-12-08T03:52:26.474Z,6.50
2018-12-08T03:54:54.961Z,6.50
2018-12-08T03:57:23.513Z,6.50
2018-12-08T03:59:51.971Z,6.40
2018-12-08T04:02:20.486Z,6.40
2018-12-08T04:04:48.998Z,6.40
2018-12-08T04:07:17.658Z,6.40
2018-12-08T04:09:46.151Z,6.40
2018-12-08T04:12:14.679Z,6.40
2018-12-08T04:14:43.146Z,6.40
2018-12-08T04:17:11.645Z,6.50
2018-12-08T04:19:40.187Z,6.50
2018-12-08T04:22:08.674Z,6.40
2018-12-08T04:24:37.175Z,6.50
2018-12-08T04:27:05.657Z,6.50
2018-12-08T04:29:34.131Z,6.50
2018-12-08T04:32:02.692Z,6.50
2018-12-08T04:34:31.300Z,6.50
2018-12-08T04:36:59.899Z,6.60
2018-12-08T04:39:28.375Z,6.60
2018-12-08T04:41:56.884Z,6.70
2018-12-08T04:44:25.448Z,6.70
2018-12-08T04:46:54.049Z,6.70
2018-12-08T04:49:22.567Z,6.70
2018-12-08T04:51:51.077Z,6.70
2018-12-08T04:54:19.677Z,6.70
2018-12-08T04:56:48.222Z,6.70
2018-12-08T04:59:16.727Z,6.70
2018-12-08T05:01:45.301Z,6.80
2018-12-08T05:04:13.765Z,6.80
2018-12-08T05:06:42.320Z,6.70
2018-12-08T05:09:10.853Z,6.80
2018-12-08T05:11:39.420Z,6.80
2018-12-08T05:14:07.926Z,6.80
2018-12-08T05:16:36.437Z,6.80
2018-12-08T05:19:04.929Z,6.80
2018-12-08T05:21:33.464Z,6.70
2018-12-08T05:24:01.933Z,6.70
2018-12-08T05:26:30.467Z,6.70
2018-12-08T05:28:58.964Z,6.70
2018-12-08T05:31:27.481Z,6.70
2018-12-08T05:33:56.069Z,6.70
2018-12-08T05:36:24.677Z,6.70
2018-12-08T05:38:53.177Z,6.70
2018-12-08T05:41:21.685Z,6.70
2018-12-08T05:43:50.161Z,6.70
2018-12-08T05:46:18.698Z,6.70
2018-12-08T05:48:47.170Z,6.70
2018-12-08T05:51:15.675Z,6.70
2018-12-08T05:53:44.269Z,6.70
2018-12-08T05:56:12.775Z,6.70
2018-12-08T05:58:41.262Z,6.70
2018-12-08T06:01:09.766Z,6.80
2018-12-08T06:03:38.273Z,6.80
2018-12-08T06:06:06.763Z,6.80
2018-12-08T06:08:35.275Z,6.80
2018-12-08T06:11:03.864Z,6.90
2018-12-08T06:13:32.477Z,6.90
2018-12-08T06:16:02.305Z,6.90
2018-12-08T06:18:30.897Z,6.90
2018-12-08T06:20:59.487Z,6.90
2018-12-08T06:23:28.005Z,6.90
2018-12-08T06:25:57.570Z,6.90
2018-12-08T06:28:30.080Z,6.90
2018-12-08T06:30:58.608Z,6.90
2018-12-08T06:33:27.419Z,6.80
2018-12-08T06:35:55.944Z,6.80
2018-12-08T06:38:25.416Z,6.80
2018-12-08T06:40:54.055Z,6.80
2018-12-08T06:43:22.569Z,6.80
2018-12-08T06:45:51.203Z,6.80
2018-12-08T06:48:19.760Z,6.80
2018-12-08T06:50:48.243Z,6.80
2018-12-08T06:53:16.704Z,6.80
2018-12-08T06:55:45.255Z,6.80
2018-12-08T06:58:14.721Z,6.90
2018-12-08T07:00:43.373Z,6.80
2018-12-08T07:03:11.945Z,6.90
2018-12-08T07:05:40.442Z,6.90
2018-12-08T07:08:08.985Z,6.90
2018-12-08T07:10:37.482Z,7.00
2018-12-08T07:13:06.135Z,7.00
2018-12-08T07:15:34.629Z,7.00
2018-12-08T07:18:03.136Z,7.00
2018-12-08T07:20:31.657Z,7.00
2018-12-08T07:23:00.193Z,7.00
2018-12-08T07:25:28.673Z,7.00
2018-12-08T07:27:57.381Z,7.00
2018-12-08T07:30:25.996Z,7.00
2018-12-08T07:32:54.564Z,7.00
2018-12-08T07:35:23.054Z,7.10
2018-12-08T07:37:51.594Z,7.10
2018-12-08T07:40:20.139Z,7.10
2018-12-08T07:42:48.640Z,7.10
2018-12-08T07:45:17.196Z,7.10
2018-12-08T07:47:46.051Z,7.10
2018-12-08T07:50:14.544Z,7.20
2018-12-08T07:52:43.034Z,7.10
2018-12-08T07:55:11.651Z,7.20
2018-12-08T07:57:40.185Z,7.10
2018-12-08T08:00:11.541Z,7.10
2018-12-08T08:02:40.163Z,7.10
2018-12-08T08:05:09.558Z,7.20
2018-12-08T08:07:38.382Z,7.10
2018-12-08T08:10:09.659Z,7.10
2018-12-08T08:12:38.678Z,7.10
2018-12-08T08:15:09.401Z,7.10
2018-12-08T08:17:38.206Z,7.10
2018-12-08T08:20:09.293Z,7.10
2018-12-08T08:22:37.805Z,7.00
2018-12-08T08:25:08.011Z,7.10
2018-12-08T08:27:36.482Z,7.10
2018-12-08T08:30:06.412Z,7.10
2018-12-08T08:32:34.973Z,7.10
2018-12-08T08:35:03.980Z,7.10
2018-12-08T08:37:32.468Z,7.20
2018-12-08T08:40:00.999Z,7.20
2018-12-08T08:42:29.514Z,7.20
2018-12-08T08:44:58.052Z,7.30
2018-12-08T08:47:26.659Z,7.30
2018-12-08T08:49:55.247Z,7.30
2018-12-08T08:52:23.744Z,7.30
2018-12-08T08:54:52.404Z,7.30
2018-12-08T08:57:20.878Z,7.40
2018-12-08T08:59:49.402Z,7.40
2018-12-08T09:02:17.921Z,7.40
2018-12-08T09:04:46.419Z,7.40
2018-12-08T09:07:14.937Z,7.40
2018-12-08T09:09:43.514Z,7.50
2018-12-08T09:12:12.003Z,7.50
2018-12-08T09:14:40.509Z,7.50
2018-12-08T09:17:09.084Z,7.60
2018-12-08T09:19:37.637Z,7.70
2018-12-08T09:22:06.185Z,7.70
2018-12-08T09:24:34.733Z,7.80
2018-12-08T09:27:03.346Z,7.80
2018-12-08T09:29:33.178Z,7.90
2018-12-08T09:32:01.714Z,7.80
2018-12-08T09:34:30.260Z,7.80
2018-12-08T09:37:01.928Z,7.80
2018-12-08T09:39:31.737Z,7.80
2018-12-08T09:42:01.293Z,7.80
2018-12-08T09:44:31.302Z,7.80
2018-12-08T09:47:02.912Z,7.80
2018-12-08T09:49:33.812Z,7.80
2018-12-08T09:52:03.059Z,7.70
2018-12-08T09:54:31.532Z,7.70
2018-12-08T09:57:00.103Z,7.70
2018-12-08T09:59:28.596Z,7.70
2018-12-08T10:01:57.110Z,7.70
2018-12-08T10:04:26.444Z,7.70
2018-12-08T10:06:55.043Z,7.70
2018-12-08T10:09:23.537Z,7.60
2018-12-08T10:11:52.112Z,7.70
2018-12-08T10:14:20.587Z,7.60
2018-12-08T10:16:49.183Z,7.70
2018-12-08T10:19:17.772Z,7.70
2018-12-08T10:21:46.278Z,7.70
2018-12-08T10:24:14.747Z,7.70
2018-12-08T10:26:43.266Z,7.80
2018-12-08T10:29:11.781Z,7.80
2018-12-08T10:31:40.305Z,7.80
2018-12-08T10:34:08.921Z,7.80
2018-12-08T10:36:37.426Z,7.80
2018-12-08T10:39:07.973Z,7.80
2018-12-08T10:41:36.568Z,7.80
2018-12-08T10:44:05.068Z,7.80
2018-12-08T10:46:35.484Z,7.80
2018-12-08T10:49:05.859Z,7.90
2018-12-08T10:51:35.811Z,7.80
2018-12-08T10:54:04.384Z,7.90
2018-12-08T10:56:32.983Z,7.90
2018-12-08T10:59:01.462Z,7.90
2018-12-08T11:01:35.368Z,7.90
2018-12-08T11:04:03.957Z,7.90
2018-12-08T11:06:32.545Z,7.90
2018-12-08T11:09:01.144Z,7.80
2018-12-08T11:11:29.681Z,7.80
2018-12-08T11:13:58.226Z,7.80
2018-12-08T11:16:26.940Z,7.80
2018-12-08T11:18:55.605Z,7.70
2018-12-08T11:21:24.113Z,7.70
2018-12-08T11:23:52.664Z,7.80
2018-12-08T11:26:21.169Z,7.80
2018-12-08T11:28:49.598Z,7.80
2018-12-08T11:31:18.108Z,7.80
2018-12-08T11:33:46.639Z,7.80
2018-12-08T11:36:15.136Z,7.80
2018-12-08T11:38:47.361Z,7.80
2018-12-08T11:41:15.881Z,7.80
2018-12-08T11:43:44.375Z,7.80
2018-12-08T11:46:13.037Z,7.70
2018-12-08T11:48:41.531Z,7.70
2018-12-08T11:51:10.006Z,7.70
2018-12-08T11:53:38.467Z,7.70
2018-12-08T11:56:07.159Z,7.70
2018-12-08T11:58:35.669Z,7.70
2018-12-08T12:01:04.294Z,7.70
2018-12-08T12:03:32.793Z,7.70
2018-12-08T12:06:01.375Z,7.70
2018-12-08T12:08:29.897Z,7.70
2018-12-08T12:10:58.410Z,7.70
2018-12-08T12:13:26.887Z,7.70
2018-12-08T12:15:55.373Z,7.70
2018-12-08T12:18:23.864Z,7.80
2018-12-08T12:20:53.490Z,7.80
2018-12-08T12:23:22.569Z,7.80
2018-12-08T12:25:51.164Z,7.90
2018-12-08T12:28:19.670Z,7.90
2018-12-08T12:30:48.406Z,7.90
2018-12-08T12:33:17.171Z,7.90
2018-12-08T12:35:45.684Z,7.90
2018-12-08T12:38:14.178Z,7.90
2018-12-08T12:40:42.663Z,8.00
2018-12-08T12:43:11.174Z,8.00
2018-12-08T12:45:39.911Z,8.00
2018-12-08T12:48:08.577Z,8.00
2018-12-08T12:50:37.118Z,8.00
2018-12-08T12:53:08.257Z,8.00
2018-12-08T12:55:36.751Z,8.10
2018-12-08T12:58:05.212Z,8.10
2018-12-08T13:00:33.722Z,8.10
2018-12-08T13:03:02.175Z,8.00
2018-12-08T13:05:30.695Z,8.10
2018-12-08T13:07:59.221Z,8.10
2018-12-08T13:10:28.710Z,8.10
2018-12-08T13:12:57.399Z,8.10
2018-12-08T13:15:26.214Z,8.10
2018-12-08T13:17:54.728Z,8.10
2018-12-08T13:20:23.293Z,8.10
2018-12-08T13:22:51.898Z,8.10
2018-12-08T13:25:25.657Z,8.20
2018-12-08T13:27:54.207Z,8.20
2018-12-08T13:30:23.175Z,8.20
2018-12-08T13:32:52.278Z,8.20
2018-12-08T13:35:32.379Z,8.20
2018-12-08T13:38:01.209Z,8.20
2018-12-08T13:40:29.729Z,8.20
2018-12-08T13:42:58.365Z,8.20
2018-12-08T13:45:26.994Z,8.20
2018-12-08T13:47:55.518Z,8.20
2018-12-08T13:50:24.105Z,8.20
2018-12-08T13:52:52.676Z,8.20
2018-12-08T13:55:21.151Z,8.20
2018-12-08T13:57:49.644Z,8.20
2018-12-08T14:00:18.172Z,8.20
2018-12-08T14:02:46.668Z,8.20
2018-12-08T14:05:15.237Z,8.20
2018-12-08T14:07:44.057Z,8.20
2018-12-08T14:10:12.635Z,8.20
2018-12-08T14:12:41.196Z,8.20
2018-12-08T14:15:09.945Z,8.20
2018-12-08T14:17:38.414Z,8.20
2018-12-08T14:20:41.125Z,8.20
2018-12-08T14:23:09.706Z,8.20
2018-12-08T14:25:38.385Z,8.20
2018-12-08T14:28:07.235Z,8.20
2018-12-08T14:30:35.931Z,8.20
2018-12-08T14:33:04.645Z,8.20
2018-12-08T14:35:33.270Z,8.30
2018-12-08T14:38:01.792Z,8.30
2018-12-08T14:40:30.364Z,8.30
2018-12-08T14:42:58.921Z,8.30
2018-12-08T14:45:27.458Z,8.30
2018-12-08T14:47:56.017Z,8.30
2018-12-08T14:50:24.509Z,8.30
2018-12-08T14:52:53.026Z,8.40
2018-12-08T14:55:21.496Z,8.30
2018-12-08T14:57:50.087Z,8.30
2018-12-08T15:00:18.652Z,8.30
2018-12-08T15:02:47.215Z,8.30
2018-12-08T15:05:15.958Z,8.30
2018-12-08T15:07:44.595Z,8.30
2018-12-08T15:10:13.369Z,8.30
2018-12-08T15:12:41.958Z,8.30
2018-12-08T15:15:11.177Z,8.30
2018-12-08T15:17:39.644Z,8.30
2018-12-08T15:20:09.405Z,8.40
2018-12-08T15:22:38.226Z,8.40
2018-12-08T15:25:08.811Z,8.40
2018-12-08T15:27:37.537Z,8.40
2018-12-08T15:30:07.720Z,8.40
2018-12-08T15:32:36.207Z,8.40
2018-12-08T15:35:06.474Z,8.40
2018-12-08T15:37:34.974Z,8.40
2018-12-08T15:40:03.616Z,8.40
2018-12-08T15:42:32.396Z,8.40
2018-12-08T15:45:00.949Z,8.40
2018-12-08T15:47:29.406Z,8.40
2018-12-08T15:49:57.884Z,8.40
2018-12-08T15:52:26.373Z,8.40
2018-12-08T15:54:54.873Z,8.40
2018-12-08T15:57:23.417Z,8.40
2018-12-08T15:59:51.977Z,8.40
2018-12-08T16:02:20.475Z,8.40
2018-12-08T16:04:49.038Z,8.40
2018-12-08T16:07:17.564Z,8.40
2018-12-08T16:09:46.079Z,8.40
2018-12-08T16:12:14.575Z,8.40
2018-12-08T16:14:43.077Z,8.40
2018-12-08T16:17:11.581Z,8.40
2018-12-08T16:19:40.409Z,8.40
2018-12-08T16:22:09.084Z,8.40
2018-12-08T16:24:37.717Z,8.40
2018-12-08T16:27:06.383Z,8.40
2018-12-08T16:29:34.923Z,8.40
2018-12-08T16:32:03.417Z,8.40
2018-12-08T16:34:32.006Z,8.40
2018-12-08T16:37:00.652Z,8.40
2018-12-08T16:39:29.247Z,8.40
2018-12-08T16:41:57.884Z,8.40
2018-12-08T16:44:26.447Z,8.40
2018-12-08T16:46:55.337Z,8.40
2018-12-08T16:49:23.775Z,8.30
2018-12-08T16:51:52.364Z,8.30
2018-12-08T16:54:20.838Z,8.30
2018-12-08T16:56:49.439Z,8.20
2018-12-08T16:59:18.203Z,8.30
2018-12-08T17:01:53.692Z,8.20
2018-12-08T17:04:22.515Z,8.20
2018-12-08T17:06:51.271Z,8.20
2018-12-08T17:09:19.704Z,8.20
2018-12-08T17:11:48.321Z,8.20
2018-12-08T17:14:16.819Z,8.10
2018-12-08T17:16:45.310Z,8.10
2018-12-08T17:19:13.785Z,8.10
2018-12-08T17:21:42.281Z,8.10
2018-12-08T17:24:10.893Z,8.10
2018-12-08T17:26:39.437Z,8.10
2018-12-08T17:29:08.015Z,8.10
2018-12-08T17:31:36.937Z,8.10
2018-12-08T17:34:05.917Z,8.00
2018-12-08T17:36:34.486Z,8.00
2018-12-08T17:39:04.128Z,8.00
2018-12-08T17:41:32.669Z,8.00
2018-12-08T17:44:01.151Z,8.00
2018-12-08T17:46:29.916Z,7.90
2018-12-08T17:48:58.725Z,7.90
2018-12-08T17:51:27.243Z,7.90
2018-12-08T17:53:55.790Z,7.80
2018-12-08T17:56:24.398Z,7.80
2018-12-08T17:58:53.009Z,7.70
2018-12-08T18:01:21.495Z,7.70
2018-12-08T18:03:49.986Z,7.70
2018-12-08T18:06:18.658Z,7.60
2018-12-08T18:08:47.323Z,7.60
2018-12-08T18:11:16.209Z,7.60
2018-12-08T18:13:44.944Z,7.60
2018-12-08T18:16:13.756Z,7.60
2018-12-08T18:18:43.304Z,7.60
2018-12-08T18:21:12.014Z,7.70
2018-12-08T18:23:40.680Z,7.70
2018-12-08T18:26:09.279Z,7.70
2018-12-08T18:28:37.880Z,7.70
2018-12-08T18:31:06.600Z,7.70
2018-12-08T18:33:35.157Z,7.70
2018-12-08T18:36:03.846Z,7.80
2018-12-08T18:38:32.523Z,7.80
2018-12-08T18:41:01.091Z,7.80
2018-12-08T18:43:30.385Z,7.80
2018-12-08T18:46:00.178Z,7.80
2018-12-08T18:48:28.914Z,7.80
2018-12-08T18:50:57.611Z,7.80
2018-12-08T18:53:27.438Z,7.70
2018-12-08T18:55:55.953Z,7.70
2018-12-08T18:58:24.468Z,7.70
2018-12-08T19:00:55.180Z,7.60
2018-12-08T19:03:23.834Z,7.60
2018-12-08T19:05:52.451Z,7.50
2018-12-08T19:08:21.054Z,7.50
2018-12-08T19:10:49.571Z,7.50
2018-12-08T19:13:18.169Z,7.50
2018-12-08T19:15:47.195Z,7.50
2018-12-08T19:18:15.897Z,7.60
2018-12-08T19:20:44.475Z,7.60
2018-12-08T19:23:14.613Z,7.60
2018-12-08T19:25:43.311Z,7.60
2018-12-08T19:28:12.230Z,7.60
2018-12-08T19:30:40.855Z,7.70
2018-12-08T19:33:14.506Z,7.70
2018-12-08T19:35:39.973Z,7.70
2018-12-08T19:38:08.514Z,7.60
2018-12-08T19:40:37.159Z,7.60
2018-12-08T19:43:05.687Z,7.60
2018-12-08T19:45:34.161Z,7.60
2018-12-08T19:48:02.682Z,7.60
2018-12-08T19:50:31.250Z,7.50
2018-12-08T19:52:59.933Z,7.50
2018-12-08T19:55:28.714Z,7.50
2018-12-08T19:57:57.328Z,7.50
2018-12-08T20:00:25.833Z,7.40
2018-12-08T20:02:54.375Z,7.40
2018-12-08T20:05:22.998Z,7.40
2018-12-08T20:07:51.760Z,7.40
2018-12-08T20:10:20.302Z,7.40
2018-12-08T20:12:48.843Z,7.40
2018-12-08T20:15:17.496Z,7.40
2018-12-08T20:17:46.168Z,7.40
2018-12-08T20:20:14.771Z,7.50
2018-12-08T20:22:51.282Z,7.50
2018-12-08T20:25:19.860Z,7.50
2018-12-08T20:27:48.439Z,7.60
2018-12-08T20:30:17.012Z,7.60
2018-12-08T20:32:46.163Z,7.60
2018-12-08T20:35:14.758Z,7.60
2018-12-08T20:37:43.261Z,7.60
2018-12-08T20:40:11.747Z,7.70
2018-12-08T20:42:40.363Z,7.70
2018-12-08T20:45:08.913Z,7.70
2018-12-08T20:47:37.378Z,7.70
2018-12-08T20:50:06.772Z,7.80
2018-12-08T20:52:35.329Z,7.80
2018-12-08T20:55:03.945Z,7.80
2018-12-08T20:57:32.438Z,7.80
2018-12-08T21:00:00.891Z,7.80
2018-12-08T21:02:29.402Z,7.90
2018-12-08T21:04:58.038Z,7.90
2018-12-08T21:07:26.550Z,7.90
2018-12-08T21:09:55.065Z,7.90
2018-12-08T21:12:23.583Z,7.90
2018-12-08T21:14:52.096Z,7.90
2018-12-08T21:17:20.595Z,7.90
2018-12-08T21:19:49.084Z,8.00
2018-12-08T21:22:17.552Z,8.00
2018-12-08T21:24:46.045Z,8.00
2018-12-08T21:27:14.527Z,8.00
2018-12-08T21:29:43.029Z,8.00
2018-12-08T21:32:11.573Z,8.00
2018-12-08T21:34:40.015Z,8.00
2018-12-08T21:37:08.544Z,8.00
2018-12-08T21:39:37.010Z,8.00
2018-12-08T21:42:05.636Z,7.90
2018-12-08T21:44:34.142Z,7.80
2018-12-08T21:47:02.628Z,7.80
2018-12-08T21:49:31.116Z,7.80
2018-12-08T21:51:59.783Z,7.80
2018-12-08T21:54:28.322Z,7.80
2018-12-08T21:56:56.832Z,7.80
2018-12-08T21:59:25.326Z,7.70
2018-12-08T22:01:53.840Z,7.70
2018-12-08T22:04:22.342Z,7.70
2018-12-08T22:06:50.837Z,7.70
2018-12-08T22:09:19.369Z,7.70
2018-12-08T22:11:47.906Z,7.70
2018-12-08T22:14:16.355Z,7.70
2018-12-08T22:16:44.871Z,7.70
2018-12-08T22:19:13.378Z,7.70
2018-12-08T22:21:41.989Z,7.70
2018-12-08T22:24:10.459Z,7.70
2018-12-08T22:26:39.000Z,7.70
2018-12-08T22:29:07.475Z,7.70
2018-12-08T22:31:36.028Z,7.60
2018-12-08T22:34:04.681Z,7.60
2018-12-08T22:36:33.242Z,7.70
2018-12-08T22:39:01.776Z,7.60
2018-12-08T22:41:30.280Z,7.70
2018-12-08T22:43:58.772Z,7.70
2018-12-08T22:46:27.421Z,7.70
2018-12-08T22:48:56.022Z,7.70
2018-12-08T22:51:24.600Z,7.70
2018-12-08T22:53:53.507Z,7.70
2018-12-08T22:56:22.156Z,7.70
2018-12-08T22:58:50.678Z,7.80
2018-12-08T23:01:19.398Z,7.80
2018-12-08T23:03:48.012Z,7.80
2018-12-08T23:06:16.538Z,7.80
2018-12-08T23:08:45.115Z,7.90
2018-12-08T23:11:13.629Z,7.90
2018-12-08T23:13:42.068Z,7.90
2018-12-08T23:16:10.680Z,7.90
2018-12-08T23:18:39.138Z,8.00
2018-12-08T23:21:07.652Z,8.00
2018-12-08T23:23:36.156Z,8.10
2018-12-08T23:26:04.800Z,8.10
2018-12-08T23:28:33.357Z,8.10
2018-12-08T23:31:02.041Z,8.10
2018-12-08T23:33:30.643Z,8.10
2018-12-08T23:35:59.523Z,8.20
2018-12-08T23:38:28.115Z,8.20
2018-12-08T23:40:56.637Z,8.20
2018-12-08T23:43:25.250Z,8.30
2018-12-08T23:45:53.877Z,8.30
2018-12-08T23:48:22.569Z,8.30
2018-12-08T23:50:51.223Z,8.30
2018-12-08T23:53:19.694Z,8.40
2018-12-08T23:55:48.344Z,8.40
2018-12-08T23:58:17.003Z,8.40
